createdAt,value
2018-01-20T00:00:02.789Z,1.53
2018-01-20T00:01:13.965Z,1.54
2018-01-20T00:02:24.106Z,1.53
2018-01-20T00:03:34.350Z,1.5
2018-01-20T00:04:44.591Z,1.54
2018-01-20T00:05:54.802Z,1.48
2018-01-20T00:07:04.966Z,1.46
2018-01-20T00:08:15.186Z,1.48
2018-01-20T00:09:25.332Z,1.48
2018-01-20T00:10:35.489Z,1.47
2018-01-20T00:11:45.450Z,1.33
2018-01-20T00:12:55.683Z,1.33
2018-01-20T00:14:05.860Z,1.4
2018-01-20T00:15:16.135Z,1.43
2018-01-20T00:16:26.375Z,1.46
2018-01-20T00:17:36.516Z,1.42
2018-01-20T00:18:46.675Z,1.5
2018-01-20T00:19:56.903Z,1.43
2018-01-20T00:21:07.186Z,1.46
2018-01-20T00:22:17.323Z,1.43
2018-01-20T00:23:27.627Z,1.4
2018-01-20T00:24:37.824Z,1.5
2018-01-20T00:25:48.043Z,1.43
2018-01-20T00:26:58.238Z,1.43
2018-01-20T00:28:08.418Z,1.47
2018-01-20T00:29:18.569Z,1.48
2018-01-20T00:30:28.696Z,1.42
2018-01-20T00:31:38.842Z,1.42
2018-01-20T00:32:49.005Z,1.4
2018-01-20T00:33:59.152Z,1.33
2018-01-20T00:35:09.070Z,1.32
2018-01-20T00:36:19.255Z,1.33
2018-01-20T00:37:29.399Z,1.35
2018-01-20T00:38:39.603Z,1.32
2018-01-20T00:39:49.767Z,1.35
2018-01-20T00:40:59.700Z,1.25
2018-01-20T00:42:09.865Z,1.28
2018-01-20T00:43:20.052Z,1.32
2018-01-20T00:44:30.213Z,1.33
2018-01-20T00:45:40.318Z,1.36
2018-01-20T00:46:50.469Z,1.3
2018-01-20T00:48:00.679Z,1.25
2018-01-20T00:49:10.831Z,1.38
2018-01-20T00:50:20.957Z,1.22
2018-01-20T00:51:31.072Z,1.25
2018-01-20T00:52:41.304Z,1.29
2018-01-20T00:53:51.498Z,1.32
2018-01-20T00:55:01.741Z,1.25
2018-01-20T00:56:11.881Z,1.24
2018-01-20T00:57:22.017Z,1.24
2018-01-20T00:58:32.312Z,1.2
2018-01-20T00:59:42.259Z,1.25
2018-01-20T01:00:52.376Z,1.25
2018-01-20T01:02:02.520Z,1.22
2018-01-20T01:03:12.670Z,1.22
2018-01-20T01:04:22.914Z,1.22
2018-01-20T01:05:33.081Z,1.2
2018-01-20T01:06:43.312Z,1.15
2018-01-20T01:07:53.248Z,1.25
2018-01-20T01:09:03.387Z,1.24
2018-01-20T01:10:13.526Z,1.21
2018-01-20T01:11:23.813Z,1.22
2018-01-20T01:12:34.027Z,1.24
2018-01-20T01:13:43.825Z,1.15
2018-01-20T01:14:53.940Z,1.21
2018-01-20T01:16:04.137Z,1.25
2018-01-20T01:17:14.309Z,1.28
2018-01-20T01:18:24.456Z,1.22
2018-01-20T01:19:34.766Z,1.25
2018-01-20T01:20:44.978Z,1.2
2018-01-20T01:21:55.171Z,1.22
2018-01-20T01:23:05.319Z,1.15
2018-01-20T01:24:15.458Z,1.15
2018-01-20T01:25:25.589Z,1.17
2018-01-20T01:26:35.770Z,1.25
2018-01-20T01:27:45.998Z,1.17
2018-01-20T01:28:56.184Z,1.2
2018-01-20T01:30:06.328Z,1.2
2018-01-20T01:31:16.607Z,1.18
2018-01-20T01:32:26.741Z,1.2
2018-01-20T01:33:36.941Z,1.15
2018-01-20T01:34:47.218Z,1.1
2018-01-20T01:35:57.472Z,1.1
2018-01-20T01:37:07.291Z,1.15
2018-01-20T01:38:17.424Z,1.11
2018-01-20T01:39:27.287Z,1
2018-01-20T01:40:37.167Z,0.86
2018-01-20T01:41:47.295Z,0.86
2018-01-20T01:42:57.438Z,0.81
2018-01-20T01:44:07.655Z,0.82
2018-01-20T01:45:17.551Z,0.79
2018-01-20T01:46:27.413Z,0.85
2018-01-20T01:47:37.798Z,0.76
2018-01-20T01:48:47.926Z,0.68
2018-01-20T01:49:58.185Z,0.76
2018-01-20T01:51:08.365Z,0.74
2018-01-20T01:52:18.597Z,0.72
2018-01-20T01:53:28.783Z,0.81
2018-01-20T01:54:38.957Z,0.84
2018-01-20T01:55:49.064Z,0.78
2018-01-20T01:57:30.812Z,0.84
2018-01-20T01:58:40.956Z,0.84
2018-01-20T01:59:51.093Z,0.79
2018-01-20T02:01:01.237Z,0.78
2018-01-20T02:02:11.388Z,0.86
2018-01-20T02:03:21.519Z,0.94
2018-01-20T02:04:31.641Z,0.86
2018-01-20T02:05:41.759Z,0.82
2018-01-20T02:06:51.880Z,0.81
2018-01-20T02:08:02.099Z,0.85
2018-01-20T02:09:12.260Z,0.82
2018-01-20T02:10:22.400Z,0.75
2018-01-20T02:11:32.552Z,0.81
2018-01-20T02:12:42.698Z,0.84
2018-01-20T02:13:52.847Z,0.75
2018-01-20T02:15:03.001Z,0.81
2018-01-20T02:16:13.287Z,0.68
2018-01-20T02:17:23.168Z,0.67
2018-01-20T02:18:33.328Z,0.74
2018-01-20T02:19:43.490Z,0.63
2018-01-20T02:20:53.666Z,0.64
2018-01-20T02:22:03.818Z,0.54
2018-01-20T02:23:13.950Z,0.6
2018-01-20T02:24:24.060Z,0.56
2018-01-20T02:25:34.177Z,0.63
2018-01-20T02:26:44.363Z,0.71
2018-01-20T02:27:54.506Z,0.72
2018-01-20T02:29:04.345Z,0.61
2018-01-20T02:30:14.207Z,0.6
2018-01-20T02:31:24.326Z,0.57
2018-01-20T02:32:34.598Z,0.56
2018-01-20T02:33:44.711Z,0.61
2018-01-20T02:34:54.891Z,0.6
2018-01-20T02:36:05.118Z,0.57
2018-01-20T02:37:15.343Z,0.66
2018-01-20T02:38:25.525Z,0.71
2018-01-20T02:39:35.822Z,0.58
2018-01-20T02:40:46.045Z,0.58
2018-01-20T02:41:55.909Z,0.61
2018-01-20T02:43:05.775Z,0.64
2018-01-20T02:44:15.890Z,0.67
2018-01-20T02:45:25.999Z,0.64
2018-01-20T02:46:36.156Z,0.64
2018-01-20T02:47:46.448Z,0.64
2018-01-20T02:48:56.611Z,0.75
2018-01-20T02:50:06.739Z,0.63
2018-01-20T02:51:16.993Z,0.71
2018-01-20T02:52:27.094Z,0.63
2018-01-20T02:53:37.226Z,0.63
2018-01-20T02:54:47.349Z,0.64
2018-01-20T02:55:57.607Z,0.71
2018-01-20T02:57:07.713Z,0.71
2018-01-20T02:58:17.816Z,0.68
2018-01-20T02:59:27.925Z,0.67
2018-01-20T03:00:38.101Z,0.67
2018-01-20T03:01:47.975Z,0.64
2018-01-20T03:02:58.092Z,0.74
2018-01-20T03:04:07.965Z,0.67
2018-01-20T03:05:17.831Z,0.71
2018-01-20T03:06:28.049Z,0.58
2018-01-20T03:07:38.337Z,0.61
2018-01-20T03:08:48.744Z,0.61
2018-01-20T03:09:58.776Z,0.53
2018-01-20T03:11:08.887Z,0.48
2018-01-20T03:12:19.028Z,0.48
2018-01-20T03:13:29.188Z,0.43
2018-01-20T03:14:39.286Z,0.48
2018-01-20T03:15:49.413Z,0.5
2018-01-20T03:16:59.536Z,0.53
2018-01-20T03:18:09.682Z,0.53
2018-01-20T03:19:19.781Z,0.56
2018-01-20T03:20:29.909Z,0.58
2018-01-20T03:21:40.010Z,0.5
2018-01-20T03:22:50.125Z,0.6
2018-01-20T03:24:00.305Z,0.6
2018-01-20T03:25:10.214Z,0.56
2018-01-20T03:26:20.346Z,0.61
2018-01-20T03:27:30.462Z,0.6
2018-01-20T03:28:40.336Z,0.66
2018-01-20T03:29:50.446Z,0.66
2018-01-20T03:31:00.694Z,0.6
2018-01-20T03:32:10.819Z,0.64
2018-01-20T03:33:20.929Z,0.63
2018-01-20T03:34:31.039Z,0.61
2018-01-20T03:35:41.156Z,0.57
2018-01-20T03:36:51.276Z,0.5
2018-01-20T03:38:01.416Z,0.48
2018-01-20T03:39:11.296Z,0.49
2018-01-20T03:40:21.433Z,0.45
2018-01-20T03:41:31.717Z,0.48
2018-01-20T03:42:41.575Z,0.4
2018-01-20T03:43:51.755Z,0.45
2018-01-20T03:45:01.864Z,0.43
2018-01-20T03:46:11.967Z,0.43
2018-01-20T03:47:22.112Z,0.28
2018-01-20T03:48:33.223Z,0.33
2018-01-20T03:49:43.334Z,0.35
2018-01-20T03:50:53.503Z,0.24
2018-01-20T03:52:03.696Z,0.2
2018-01-20T03:53:13.954Z,0.21
2018-01-20T03:54:24.185Z,0.17
2018-01-20T03:55:34.382Z,0.2
2018-01-20T03:56:44.560Z,0.14
2018-01-20T03:57:54.860Z,0.35
2018-01-20T03:59:05.044Z,0.25
2018-01-20T04:00:15.178Z,0.33
2018-01-20T04:01:25.313Z,0.25
2018-01-20T04:02:35.451Z,0.28
2018-01-20T04:03:45.581Z,0.24
2018-01-20T04:04:55.480Z,0.24
2018-01-20T04:06:05.581Z,0.25
2018-01-20T04:07:15.755Z,0.25
2018-01-20T04:08:25.869Z,0.22
2018-01-20T04:09:36.032Z,0.3
2018-01-20T04:10:46.203Z,0.35
2018-01-20T04:11:56.430Z,0.3
2018-01-20T04:13:06.630Z,0.3
2018-01-20T04:14:16.764Z,0.31
2018-01-20T04:15:26.885Z,0.3
2018-01-20T04:16:36.971Z,0.33
2018-01-20T04:17:47.110Z,0.33
2018-01-20T04:18:57.311Z,0.35
2018-01-20T04:20:07.496Z,0.38
2018-01-20T04:21:17.686Z,0.31
2018-01-20T04:22:27.797Z,0.3
2018-01-20T04:23:37.915Z,0.33
2018-01-20T04:24:48.028Z,0.28
2018-01-20T04:25:58.199Z,0.36
2018-01-20T04:27:08.104Z,0.3
2018-01-20T04:28:18.216Z,0.24
2018-01-20T04:29:28.323Z,0.14
2018-01-20T04:30:38.469Z,0.09
2018-01-20T04:31:48.842Z,0.06
2018-01-20T04:32:58.963Z,0.01
2018-01-20T04:34:09.092Z,0.01
2018-01-20T04:35:19.204Z,-0.02
2018-01-20T04:36:29.354Z,0.06
2018-01-20T04:37:39.470Z,0.03
2018-01-20T04:38:49.718Z,-0.06
2018-01-20T04:39:59.924Z,-0.09
2018-01-20T04:41:10.141Z,-0.13
2018-01-20T04:42:20.354Z,-0.1
2018-01-20T04:43:30.525Z,-0.16
2018-01-20T04:44:40.731Z,-0.13
2018-01-20T04:45:50.989Z,-0.15
2018-01-20T04:47:01.137Z,-0.02
2018-01-20T04:48:11.303Z,-0.06
2018-01-20T04:49:21.620Z,-0.04
2018-01-20T04:50:31.752Z,0.05
2018-01-20T04:51:41.848Z,0.01
2018-01-20T04:52:51.952Z,0.01
2018-01-20T04:54:01.781Z,0.08
2018-01-20T04:55:11.932Z,0.08
2018-01-20T04:56:22.039Z,0.03
2018-01-20T04:57:32.222Z,-0.04
2018-01-20T04:58:42.098Z,0.03
2018-01-20T04:59:52.231Z,0.03
2018-01-20T05:01:02.326Z,0.01
2018-01-20T05:02:12.438Z,0.08
2018-01-20T05:03:22.555Z,0.02
2018-01-20T05:04:32.709Z,0.05
2018-01-20T05:05:42.874Z,0.03
2018-01-20T05:06:53.005Z,-0.04
2018-01-20T05:08:03.275Z,0.06
2018-01-20T05:09:13.129Z,-0.04
2018-01-20T05:10:23.269Z,-0.07
2018-01-20T05:11:33.430Z,-0.02
2018-01-20T05:12:43.646Z,-0.01
2018-01-20T05:13:53.794Z,-0.1
2018-01-20T05:15:03.922Z,-0.06
2018-01-20T05:16:14.046Z,-0.07
2018-01-20T05:17:24.144Z,-0.15
2018-01-20T05:18:34.304Z,-0.1
2018-01-20T05:19:44.511Z,-0.09
2018-01-20T05:20:54.601Z,-0.15
2018-01-20T05:22:04.711Z,-0.01
2018-01-20T05:23:14.850Z,-0.04
2018-01-20T05:24:24.688Z,-0.1
2018-01-20T05:25:34.803Z,-0.07
2018-01-20T05:26:44.912Z,-0.09
2018-01-20T05:27:55.163Z,0.05
2018-01-20T05:29:06.328Z,0.02
2018-01-20T05:30:16.541Z,0.05
2018-01-20T05:31:26.750Z,0.02
2018-01-20T05:32:36.939Z,0.05
2018-01-20T05:33:47.138Z,0.01
2018-01-20T05:34:57.276Z,0.01
2018-01-20T05:36:07.471Z,0.03
2018-01-20T05:37:17.599Z,0.03
2018-01-20T05:38:27.728Z,0.08
2018-01-20T05:39:37.697Z,0.09
2018-01-20T05:40:47.799Z,0.14
2018-01-20T05:41:57.900Z,0.08
2018-01-20T05:43:08.057Z,0.05
2018-01-20T05:44:18.281Z,0.12
2018-01-20T05:45:28.067Z,0.11
2018-01-20T05:46:38.194Z,0.12
2018-01-20T05:47:48.298Z,0.14
2018-01-20T05:48:58.416Z,0.11
2018-01-20T05:50:08.546Z,0.17
2018-01-20T05:51:19.629Z,0.2
2018-01-20T05:52:29.748Z,0.09
2018-01-20T05:53:39.987Z,0.14
2018-01-20T05:54:50.135Z,0.05
2018-01-20T05:56:00.364Z,0.03
2018-01-20T05:57:10.604Z,0.09
2018-01-20T05:58:20.575Z,0.05
2018-01-20T05:59:30.690Z,0.01
2018-01-20T06:00:40.871Z,0.05
2018-01-20T06:01:51.026Z,0.06
2018-01-20T06:03:01.166Z,0.05
2018-01-20T06:04:11.464Z,-0.04
2018-01-20T06:05:21.682Z,-0.02
2018-01-20T06:06:31.978Z,-0.06
2018-01-20T06:07:42.106Z,-0.1
2018-01-20T06:08:52.273Z,-0.12
2018-01-20T06:10:02.478Z,-0.19
2018-01-20T06:11:12.378Z,-0.2
2018-01-20T06:12:22.278Z,-0.25
2018-01-20T06:13:32.411Z,-0.23
2018-01-20T06:14:42.540Z,-0.19
2018-01-20T06:15:52.654Z,-0.13
2018-01-20T06:17:02.772Z,-0.19
2018-01-20T06:18:12.886Z,-0.17
2018-01-20T06:19:23.018Z,-0.1
2018-01-20T06:20:33.150Z,-0.16
2018-01-20T06:21:43.375Z,-0.09
2018-01-20T06:22:53.551Z,-0.07
2018-01-20T06:24:03.668Z,-0.1
2018-01-20T06:25:13.825Z,-0.23
2018-01-20T06:26:23.934Z,-0.22
2018-01-20T06:27:34.104Z,-0.25
2018-01-20T06:28:44.217Z,-0.3
2018-01-20T06:29:54.326Z,-0.27
2018-01-20T06:31:04.014Z,-0.31
2018-01-20T06:32:14.138Z,-0.38
2018-01-20T06:33:24.247Z,-0.35
2018-01-20T06:34:34.403Z,-0.34
2018-01-20T06:35:44.517Z,-0.3
2018-01-20T06:36:54.654Z,-0.33
2018-01-20T06:38:04.765Z,-0.33
2018-01-20T06:39:14.915Z,-0.23
2018-01-20T06:40:25.081Z,-0.31
2018-01-20T06:41:35.246Z,-0.27
2018-01-20T06:42:45.454Z,-0.38
2018-01-20T06:43:55.584Z,-0.34
2018-01-20T06:45:05.737Z,-0.34
2018-01-20T06:46:15.756Z,-0.35
2018-01-20T06:47:25.861Z,-0.31
2018-01-20T06:48:36.031Z,-0.28
2018-01-20T06:49:46.188Z,-0.28
2018-01-20T06:50:56.397Z,-0.25
2018-01-20T06:52:06.571Z,-0.22
2018-01-20T06:53:16.740Z,-0.23
2018-01-20T06:54:26.852Z,-0.19
2018-01-20T06:55:36.977Z,-0.2
2018-01-20T06:56:47.097Z,-0.31
2018-01-20T06:57:57.292Z,-0.28
2018-01-20T06:59:07.562Z,-0.27
2018-01-20T07:00:17.722Z,-0.25
2018-01-20T07:01:27.912Z,-0.23
2018-01-20T07:02:38.078Z,-0.19
2018-01-20T07:03:48.259Z,-0.19
2018-01-20T07:04:58.373Z,-0.35
2018-01-20T07:06:08.497Z,-0.22
2018-01-20T07:07:18.629Z,-0.28
2018-01-20T07:08:28.744Z,-0.19
2018-01-20T07:09:38.858Z,-0.25
2018-01-20T07:10:48.849Z,-0.12
2018-01-20T07:11:59.009Z,-0.12
2018-01-20T07:13:08.887Z,-0.01
2018-01-20T07:14:19.030Z,-0.04
2018-01-20T07:15:29.137Z,-0.07
2018-01-20T07:16:39.293Z,-0.01
2018-01-20T07:17:49.534Z,0.03
2018-01-20T07:18:59.819Z,0.02
2018-01-20T07:20:09.946Z,-0.01
2018-01-20T07:21:20.093Z,0.05
2018-01-20T07:22:30.192Z,0.03
2018-01-20T07:23:40.306Z,0.08
2018-01-20T07:24:50.532Z,0.12
2018-01-20T07:26:00.820Z,0.08
2018-01-20T07:27:10.954Z,0.2
2018-01-20T07:28:21.100Z,0.24
2018-01-20T07:29:31.334Z,0.28
2018-01-20T07:30:41.476Z,0.3
2018-01-20T07:31:51.665Z,0.33
2018-01-20T07:33:01.789Z,0.35
2018-01-20T07:34:11.938Z,0.35
2018-01-20T07:35:22.100Z,0.3
2018-01-20T07:36:32.224Z,0.33
2018-01-20T07:37:42.331Z,0.27
2018-01-20T07:38:52.483Z,0.31
2018-01-20T07:40:02.616Z,0.27
2018-01-20T07:41:12.751Z,0.33
2018-01-20T07:42:22.896Z,0.36
2018-01-20T07:43:33.097Z,0.3
2018-01-20T07:44:43.233Z,0.28
2018-01-20T07:45:53.418Z,0.31
2018-01-20T07:47:03.569Z,0.31
2018-01-20T07:48:13.749Z,0.3
2018-01-20T07:49:23.877Z,0.31
2018-01-20T07:50:34.017Z,0.33
2018-01-20T07:51:44.170Z,0.3
2018-01-20T07:52:54.302Z,0.45
2018-01-20T07:54:04.429Z,0.48
2018-01-20T07:55:14.566Z,0.43
2018-01-20T07:56:24.715Z,0.43
2018-01-20T07:57:34.770Z,0.48
2018-01-20T07:58:44.932Z,0.48
2018-01-20T07:59:55.085Z,0.45
2018-01-20T08:01:05.202Z,0.42
2018-01-20T08:02:16.383Z,0.4
2018-01-20T08:03:26.553Z,0.49
2018-01-20T08:04:36.705Z,0.46
2018-01-20T08:05:46.862Z,0.43
2018-01-20T08:06:57.061Z,0.45
2018-01-20T08:08:07.237Z,0.54
2018-01-20T08:09:17.109Z,0.38
2018-01-20T08:10:27.278Z,0.38
2018-01-20T08:11:37.474Z,0.43
2018-01-20T08:12:47.622Z,0.4
2018-01-20T08:13:57.841Z,0.5
2018-01-20T08:15:08.006Z,0.48
2018-01-20T08:16:18.484Z,0.61
2018-01-20T08:17:28.608Z,0.58
2018-01-20T08:18:38.837Z,0.63
2018-01-20T08:19:49.029Z,0.78
2018-01-20T08:20:59.211Z,0.74
2018-01-20T08:22:09.418Z,0.84
2018-01-20T08:23:19.586Z,0.86
2018-01-20T08:24:29.785Z,0.96
2018-01-20T08:25:39.951Z,0.88
2018-01-20T08:26:50.153Z,0.97
2018-01-20T08:28:00.283Z,1.02
2018-01-20T08:29:10.409Z,1.03
2018-01-20T08:30:20.554Z,1.15
2018-01-20T08:31:30.689Z,1.18
2018-01-20T08:32:40.814Z,1.15
2018-01-20T08:33:50.981Z,1.18
2018-01-20T08:35:01.118Z,1.17
2018-01-20T08:36:11.263Z,1.18
2018-01-20T08:37:21.495Z,1.28
2018-01-20T08:38:31.619Z,1.21
2018-01-20T08:39:41.804Z,1.3
2018-01-20T08:40:52.004Z,1.36
2018-01-20T08:42:02.183Z,1.32
2018-01-20T08:43:12.079Z,1.3
2018-01-20T08:44:22.241Z,1.33
2018-01-20T08:45:32.394Z,1.24
2018-01-20T08:46:42.331Z,1.21
2018-01-20T08:47:52.455Z,1.21
2018-01-20T08:49:02.613Z,1.18
2018-01-20T08:50:12.884Z,1.15
2018-01-20T08:51:23.054Z,1.03
2018-01-20T08:52:33.238Z,1.08
2018-01-20T08:53:43.424Z,1.06
2018-01-20T08:54:53.650Z,1.02
2018-01-20T08:56:03.867Z,1.02
2018-01-20T08:57:14.019Z,1.03
2018-01-20T08:58:24.349Z,1.03
2018-01-20T08:59:34.620Z,1.03
2018-01-20T09:00:44.772Z,0.97
2018-01-20T09:01:54.977Z,0.88
2018-01-20T09:03:05.237Z,0.84
2018-01-20T09:04:15.053Z,0.92
2018-01-20T09:05:25.210Z,0.92
2018-01-20T09:06:35.415Z,0.88
2018-01-20T09:07:45.657Z,0.92
2018-01-20T09:08:55.803Z,0.85
2018-01-20T09:10:06.048Z,0.86
2018-01-20T09:11:15.935Z,0.88
2018-01-20T09:12:25.798Z,0.88
2018-01-20T09:13:35.956Z,0.92
2018-01-20T09:14:46.126Z,0.96
2018-01-20T09:15:56.259Z,0.88
2018-01-20T09:17:06.437Z,0.99
2018-01-20T09:18:16.568Z,0.94
2018-01-20T09:19:26.688Z,0.97
2018-01-20T09:20:36.633Z,0.99
2018-01-20T09:21:46.903Z,1.02
2018-01-20T09:22:57.093Z,0.86
2018-01-20T09:24:07.332Z,0.92
2018-01-20T09:25:17.600Z,1
2018-01-20T09:26:27.737Z,0.92
2018-01-20T09:27:37.864Z,0.99
2018-01-20T09:28:48.325Z,0.86
2018-01-20T09:29:58.487Z,0.97
2018-01-20T09:31:08.652Z,1.03
2018-01-20T09:32:18.907Z,0.97
2018-01-20T09:33:29.106Z,1.03
2018-01-20T09:34:39.261Z,1
2018-01-20T09:35:49.513Z,1.04
2018-01-20T09:36:59.714Z,1.11
2018-01-20T09:38:09.583Z,1.1
2018-01-20T09:39:19.732Z,1.2
2018-01-20T09:40:29.910Z,1.17
2018-01-20T09:41:40.050Z,1.2
2018-01-20T09:42:50.290Z,1.28
2018-01-20T09:44:00.508Z,1.2
2018-01-20T09:45:10.634Z,1.18
2018-01-20T09:46:20.541Z,1.17
2018-01-20T09:47:30.749Z,1.33
2018-01-20T09:48:40.950Z,1.48
2018-01-20T09:49:51.211Z,1.47
2018-01-20T09:51:01.412Z,1.57
2018-01-20T09:52:11.618Z,1.6
2018-01-20T09:53:21.767Z,1.57
2018-01-20T09:54:31.663Z,1.58
2018-01-20T09:55:41.969Z,1.51
2018-01-20T09:56:52.134Z,1.55
2018-01-20T09:58:02.269Z,1.73
2018-01-20T09:59:12.450Z,1.85
2018-01-20T10:00:22.628Z,2.27
2018-01-20T10:01:32.754Z,2.45
2018-01-20T10:02:42.905Z,2.82
2018-01-20T10:03:53.064Z,3.04
2018-01-20T10:05:03.267Z,3.16
2018-01-20T10:06:13.458Z,3.37
2018-01-20T10:07:23.609Z,3.43
2018-01-20T10:08:33.831Z,3.46
2018-01-20T10:09:43.702Z,3.55
2018-01-20T10:10:53.845Z,3.68
2018-01-20T10:12:04.048Z,4.01
2018-01-20T10:13:14.212Z,4.16
2018-01-20T10:14:24.415Z,4.18
2018-01-20T10:15:34.659Z,4.2
2018-01-20T10:16:44.830Z,4.46
2018-01-20T10:17:55.010Z,4.78
2018-01-20T10:19:05.165Z,4.95
2018-01-20T10:20:15.431Z,5.22
2018-01-20T10:21:25.761Z,5.26
2018-01-20T10:22:35.976Z,5.82
2018-01-20T10:23:46.216Z,6.31
2018-01-20T10:24:56.391Z,6.74
2018-01-20T10:26:06.639Z,6.89
2018-01-20T10:27:16.893Z,6.81
2018-01-20T10:28:27.019Z,7
2018-01-20T10:29:37.199Z,7.21
2018-01-20T10:30:47.355Z,7.73
2018-01-20T10:31:57.652Z,7.94
2018-01-20T10:33:08.363Z,8.34
2018-01-20T10:34:18.636Z,8.61
2018-01-20T10:35:28.916Z,9
2018-01-20T10:36:39.132Z,9.25
2018-01-20T10:37:49.360Z,9.6
2018-01-20T10:38:59.621Z,9.96
2018-01-20T10:40:09.829Z,10.15
2018-01-20T10:41:20.095Z,10.34
2018-01-20T10:42:30.809Z,10.51
2018-01-20T10:43:41.459Z,10.84
2018-01-20T10:44:51.601Z,10.8
2018-01-20T10:46:01.879Z,10.8
2018-01-20T10:47:12.054Z,10.76
2018-01-20T10:48:22.196Z,10.94
2018-01-20T10:49:32.523Z,11.13
2018-01-20T10:50:42.704Z,11.17
2018-01-20T10:51:52.946Z,11.2
2018-01-20T10:53:03.175Z,11.31
2018-01-20T10:54:13.397Z,11.43
2018-01-20T10:55:23.683Z,11.48
2018-01-20T10:56:33.919Z,11.58
2018-01-20T10:57:44.119Z,11.71
2018-01-20T10:58:54.309Z,11.76
2018-01-20T11:00:04.475Z,11.64
2018-01-20T11:01:14.711Z,11.69
2018-01-20T11:02:25.121Z,11.68
2018-01-20T11:03:35.299Z,11.8
2018-01-20T11:04:45.475Z,11.82
2018-01-20T11:05:55.661Z,11.87
2018-01-20T11:07:05.858Z,11.8
2018-01-20T11:08:16.113Z,11.83
2018-01-20T11:09:26.317Z,11.89
2018-01-20T11:10:36.506Z,12.04
2018-01-20T11:11:46.734Z,11.95
2018-01-20T11:12:57.026Z,12.02
2018-01-20T11:14:06.957Z,12.02
2018-01-20T11:15:17.273Z,11.99
2018-01-20T11:16:27.507Z,11.89
2018-01-20T11:17:37.698Z,11.98
2018-01-20T11:18:48.006Z,11.76
2018-01-20T11:19:58.255Z,11.4
2018-01-20T11:21:08.473Z,10.88
2018-01-20T11:22:18.715Z,10.54
2018-01-20T11:23:28.925Z,10.18
2018-01-20T11:24:39.402Z,9.62
2018-01-20T11:25:49.637Z,9.01
2018-01-20T11:26:59.939Z,8.49
2018-01-20T11:28:10.244Z,8.16
2018-01-20T11:29:20.533Z,7.74
2018-01-20T11:30:30.775Z,7.48
2018-01-20T11:31:40.929Z,7.17
2018-01-20T11:32:51.096Z,6.95
2018-01-20T11:34:01.245Z,6.69
2018-01-20T11:35:11.247Z,6.53
2018-01-20T11:36:21.486Z,6.41
2018-01-20T11:37:31.698Z,6.16
2018-01-20T11:38:41.919Z,6.06
2018-01-20T11:39:52.118Z,5.96
2018-01-20T11:41:02.275Z,5.88
2018-01-20T11:42:12.511Z,5.64
2018-01-20T11:43:22.797Z,5.56
2018-01-20T11:44:33.022Z,5.47
2018-01-20T11:45:43.261Z,5.31
2018-01-20T11:46:53.539Z,5.21
2018-01-20T11:48:03.711Z,5.22
2018-01-20T11:49:13.905Z,5.26
2018-01-20T11:50:24.182Z,5.22
2018-01-20T11:51:34.365Z,5.04
2018-01-20T11:52:44.297Z,5
2018-01-20T11:53:54.493Z,4.95
2018-01-20T11:55:04.646Z,4.95
2018-01-20T11:56:14.567Z,4.89
2018-01-20T11:57:24.822Z,4.77
2018-01-20T11:58:35.005Z,4.68
2018-01-20T11:59:45.173Z,4.62
2018-01-20T12:00:55.332Z,4.53
2018-01-20T12:02:05.513Z,4.53
2018-01-20T12:03:15.686Z,4.68
2018-01-20T12:04:25.912Z,4.67
2018-01-20T12:05:35.878Z,4.7
2018-01-20T12:06:46.039Z,4.63
2018-01-20T12:07:56.279Z,4.71
2018-01-20T12:09:07.531Z,4.68
2018-01-20T12:10:17.847Z,4.63
2018-01-20T12:11:28.071Z,4.65
2018-01-20T12:12:38.276Z,4.67
2018-01-20T12:13:48.182Z,4.55
2018-01-20T12:14:58.384Z,4.5
2018-01-20T12:16:08.447Z,4.57
2018-01-20T12:17:18.683Z,4.52
2018-01-20T12:18:28.890Z,4.3
2018-01-20T12:19:39.068Z,4.25
2018-01-20T12:20:49.258Z,4.2
2018-01-20T12:21:59.477Z,4.01
2018-01-20T12:23:09.671Z,3.93
2018-01-20T12:24:20.003Z,3.77
2018-01-20T12:25:30.233Z,3.64
2018-01-20T12:26:40.411Z,3.77
2018-01-20T12:27:50.636Z,3.73
2018-01-20T12:29:00.820Z,3.72
2018-01-20T12:30:11.028Z,3.69
2018-01-20T12:31:21.199Z,3.55
2018-01-20T12:32:31.406Z,3.58
2018-01-20T12:33:41.634Z,3.58
2018-01-20T12:34:51.835Z,3.54
2018-01-20T12:36:01.995Z,3.52
2018-01-20T12:37:12.178Z,3.42
2018-01-20T12:38:22.391Z,3.42
2018-01-20T12:39:32.217Z,3.42
2018-01-20T12:40:42.368Z,3.36
2018-01-20T12:41:52.540Z,3.29
2018-01-20T12:43:02.707Z,3.11
2018-01-20T12:44:12.898Z,2.94
2018-01-20T12:45:23.140Z,2.85
2018-01-20T12:46:33.332Z,2.71
2018-01-20T12:47:43.502Z,2.67
2018-01-20T12:48:53.742Z,2.53
2018-01-20T12:50:03.901Z,2.56
2018-01-20T12:51:14.182Z,2.51
2018-01-20T12:52:24.558Z,2.48
2018-01-20T12:53:34.707Z,2.56
2018-01-20T12:54:44.917Z,2.66
2018-01-20T12:55:55.378Z,2.53
2018-01-20T12:57:05.825Z,2.48
2018-01-20T12:58:16.968Z,2.46
2018-01-20T12:59:27.180Z,2.48
2018-01-20T13:00:37.394Z,2.51
2018-01-20T13:01:47.661Z,2.52
2018-01-20T13:02:58.111Z,2.67
2018-01-20T13:04:08.287Z,2.67
2018-01-20T13:05:18.507Z,2.7
2018-01-20T13:06:28.702Z,2.7
2018-01-20T13:07:38.995Z,2.69
2018-01-20T13:08:49.215Z,2.69
2018-01-20T13:09:59.364Z,2.71
2018-01-20T13:11:09.834Z,2.64
2018-01-20T13:12:20.105Z,2.56
2018-01-20T13:13:30.296Z,2.49
2018-01-20T13:14:40.517Z,2.42
2018-01-20T13:15:50.642Z,2.28
2018-01-20T13:17:00.669Z,2.23
2018-01-20T13:18:10.896Z,2.18
2018-01-20T13:19:21.055Z,2.06
2018-01-20T13:20:31.287Z,2.18
2018-01-20T13:21:41.444Z,2.08
2018-01-20T13:22:51.783Z,2.09
2018-01-20T13:24:01.971Z,2.03
2018-01-20T13:25:12.151Z,2.08
2018-01-20T13:26:22.333Z,2.03
2018-01-20T13:27:32.707Z,2.05
2018-01-20T13:28:42.902Z,2.09
2018-01-20T13:29:53.085Z,2.16
2018-01-20T13:31:03.313Z,2.18
2018-01-20T13:32:13.526Z,2.27
2018-01-20T13:33:23.762Z,2.36
2018-01-20T13:34:33.779Z,2.31
2018-01-20T13:35:44.030Z,2.49
2018-01-20T13:36:54.273Z,2.36
2018-01-20T13:38:04.507Z,2.46
2018-01-20T13:39:14.744Z,2.45
2018-01-20T13:40:24.919Z,2.46
2018-01-20T13:41:35.109Z,2.51
2018-01-20T13:42:46.324Z,2.59
2018-01-20T13:43:56.523Z,2.64
2018-01-20T13:45:06.844Z,2.67
2018-01-20T13:46:17.085Z,2.66
2018-01-20T13:47:27.269Z,2.66
2018-01-20T13:48:37.422Z,2.69
2018-01-20T13:49:47.645Z,2.69
2018-01-20T13:50:57.862Z,2.64
2018-01-20T13:52:08.109Z,2.63
2018-01-20T13:53:19.335Z,2.55
2018-01-20T13:54:29.619Z,2.52
2018-01-20T13:55:39.877Z,2.51
2018-01-20T13:56:50.165Z,2.39
2018-01-20T13:58:00.386Z,2.33
2018-01-20T13:59:10.578Z,2.27
2018-01-20T14:00:20.746Z,2.16
2018-01-20T14:01:30.766Z,2.15
2018-01-20T14:02:40.997Z,2.08
2018-01-20T14:03:51.163Z,2.12
2018-01-20T14:05:01.323Z,2.15
2018-01-20T14:06:11.577Z,2.18
2018-01-20T14:07:21.737Z,2.19
2018-01-20T14:08:31.951Z,2.08
2018-01-20T14:09:42.131Z,2.05
2018-01-20T14:10:52.338Z,2.06
2018-01-20T14:12:02.493Z,2.03
2018-01-20T14:13:12.718Z,2
2018-01-20T14:14:22.961Z,2.05
2018-01-20T14:15:33.164Z,2
2018-01-20T14:16:43.316Z,2
2018-01-20T14:17:53.584Z,2.03
2018-01-20T14:19:03.814Z,2
2018-01-20T14:20:14.022Z,2.09
2018-01-20T14:21:24.218Z,2.03
2018-01-20T14:22:34.629Z,2.06
2018-01-20T14:23:44.876Z,2.08
2018-01-20T14:24:55.069Z,2.09
2018-01-20T14:26:05.243Z,2.09
2018-01-20T14:27:15.568Z,2.06
2018-01-20T14:28:25.500Z,2.08
2018-01-20T14:29:35.723Z,2.13
2018-01-20T14:30:45.862Z,2.18
2018-01-20T14:31:56.197Z,2.23
2018-01-20T14:33:06.104Z,2.23
2018-01-20T14:34:16.267Z,2.27
2018-01-20T14:35:26.509Z,2.23
2018-01-20T14:36:36.725Z,2.37
2018-01-20T14:37:46.926Z,2.39
2018-01-20T14:38:57.134Z,2.37
2018-01-20T14:40:07.319Z,2.26
2018-01-20T14:41:17.557Z,2.31
2018-01-20T14:42:27.752Z,2.24
2018-01-20T14:43:37.965Z,2.27
2018-01-20T14:44:48.173Z,2.18
2018-01-20T14:45:58.439Z,2.16
2018-01-20T14:47:08.632Z,2.1
2018-01-20T14:48:18.832Z,2.1
2018-01-20T14:49:29.032Z,2.13
2018-01-20T14:50:39.320Z,2.03
2018-01-20T14:51:49.490Z,1.97
2018-01-20T14:52:59.751Z,1.82
2018-01-20T14:54:09.952Z,1.9
2018-01-20T14:55:20.190Z,1.85
2018-01-20T14:56:30.487Z,1.9
2018-01-20T14:57:40.638Z,1.87
2018-01-20T14:58:50.848Z,1.85
2018-01-20T15:00:01.176Z,1.87
2018-01-20T15:01:11.368Z,1.87
2018-01-20T15:02:21.260Z,1.9
2018-01-20T15:03:31.394Z,1.9
2018-01-20T15:04:41.579Z,1.85
2018-01-20T15:05:51.807Z,1.84
2018-01-20T15:07:01.989Z,1.87
2018-01-20T15:08:12.149Z,1.8
2018-01-20T15:09:22.383Z,1.84
2018-01-20T15:10:32.560Z,1.77
2018-01-20T15:11:42.807Z,1.82
2018-01-20T15:12:53.086Z,1.76
2018-01-20T15:14:03.253Z,1.74
2018-01-20T15:15:13.440Z,1.76
2018-01-20T15:16:23.687Z,1.74
2018-01-20T15:17:33.858Z,1.8
2018-01-20T15:18:44.002Z,1.74
2018-01-20T15:19:54.224Z,1.74
2018-01-20T15:21:04.476Z,1.76
2018-01-20T15:22:14.313Z,1.69
2018-01-20T15:23:24.502Z,1.76
2018-01-20T15:24:34.914Z,1.7
2018-01-20T15:25:45.362Z,1.7
2018-01-20T15:26:55.569Z,1.74
2018-01-20T15:28:05.729Z,1.66
2018-01-20T15:29:15.622Z,1.69
2018-01-20T15:30:25.841Z,1.67
2018-01-20T15:31:36.043Z,1.51
2018-01-20T15:32:46.276Z,1.54